Carrington, North Dakota
Current Conditions -  °F | °C
As of 12:15 PM on Thursday 30 Oct 2014 (Local Time) from K46D Reporting Station
Overcast Overcast  
Wind Chill: 22°   Ceiling: 1500
Heat Index: 34°   Visibility: 10mi
Dew Point: 32°   Wind: 22mph
Humidity: 93%   Direction: 10°N
Pressure: 30.35"   Gusts: 25mph
Location:  47.45°N, 99.13°W
Report Text: K46D 301715Z AUTO 01019G22KT 10SM OVC015 01/00 A3035 RMK AO2
Loading
Personal Weather Stations






























Interactive Weather Map
Tropical Storm Tracking
New forecast layout! Learn more

10-Day Weather Forecast

Advertisements
Track Severe Weather on mobile